Tatiana 1 — 9HA2824 — position and weather

sailwx.info

Track history (hours):
 
Tides and Currents Weather Stations Pressure Air Temp Water Temp Dewpoint Dewpoint Depression Visibility Wind Speed Wind Dir Waves Ship Positions

Tatiana 1

Last reported at 2015-Aug-02 13:33 UTC. Time now 2015-Aug-02 14:18 UTC.
Position N 39°15' E 002°07'.

Length 47 m; draft 1.8 m.

Type: Ship. MMSI: 256188000.

Date/timePositionNaut miles runAvg speedWind from/ knotsBaromVisibWave heightAir tempDewpointWater temp
2015-Aug-02 13:33N 39°15' E 002°07'10 9.9
2015-Aug-02 12:33N 39°20' E 002°17'1010.0
2015-Aug-02 11:33N 39°25' E 002°29'9 9.3
2015-Aug-02 10:33N 39°32' E 002°37'2 1.6
2015-Aug-02 09:32N 39°33' E 002°38'0 0.0
2015-Aug-02 08:32N 39°33' E 002°38'0 0.0
2015-Aug-02 07:32N 39°33' E 002°38'0 0.0
2015-Aug-02 06:32N 39°33' E 002°38'0 0.0
2015-Aug-02 05:32N 39°33' E 002°38'0 0.0
2015-Aug-02 04:32N 39°33' E 002°38'0 0.0
2015-Aug-02 03:32N 39°33' E 002°38'0 0.0
2015-Aug-02 02:32N 39°33' E 002°38'0 0.0
2015-Aug-02 01:32N 39°33' E 002°38'0 0.0
2015-Aug-02 00:32N 39°33' E 002°38'0 0.0
2015-Aug-01 23:32N 39°33' E 002°38'0 0.0
2015-Aug-01 22:32N 39°33' E 002°38'0 0.0
2015-Aug-01 21:08N 39°33' E 002°38'0 0.0
2015-Aug-01 20:32N 39°33' E 002°38'0 0.0
2015-Aug-01 19:32N 39°33' E 002°38'0 0.0
2015-Aug-01 18:32N 39°33' E 002°38'0 0.0
2015-Aug-01 17:32N 39°33' E 002°38'1 0.8
2015-Aug-01 16:33N 39°33' E 002°38'10 9.7
2015-Aug-01 15:33N 39°27' E 002°28'5 3.9
2015-Aug-01 14:22N 39°32' E 002°27'0 0.0
2015-Aug-01 13:16N 39°32' E 002°27'0 0.0
2015-Aug-01 12:10N 39°32' E 002°27'0 0.0
2015-Aug-01 11:28N 39°32' E 002°27'0 0.1
2015-Aug-01 10:22N 39°32' E 002°27'0 0.1
2015-Aug-01 09:22N 39°32' E 002°27'0 0.1
2015-Aug-01 08:33N 39°32' E 002°27'4 0.3
2015-Jul-31 20:26N 39°33' E 002°22'0 0.0
2015-Jul-31 17:30N 39°32' E 002°22'91 1.9
2015-Jul-29 17:30N 39°49' E 004°18'21 4.2
2015-Jul-29 12:29N 39°55' E 003°51'5 0.9
2015-Jul-29 06:26N 39°60' E 003°48'1 1.3
2015-Jul-29 05:33N 39°60' E 003°47'9 9.4
2015-Jul-29 04:33N 39°60' E 003°35'59 1.8
2015-Jul-27 20:06N 39°29' E 002°29'0 0.0
2015-Jul-27 17:12N 39°29' E 002°29'3 4.5
2015-Jul-27 16:33N 39°27' E 002°31'4 0.4
2015-Jul-27 07:13N 39°31' E 002°33'16 9.7
2015-Jul-27 05:33N 39°20' E 002°18'20 9.8
2015-Jul-27 03:33N 39°08' E 001°57'1010.1
2015-Jul-27 02:33N 39°02' E 001°47'12 9.7
2015-Jul-27 01:19N 38°55' E 001°35'12 1.1
2015-Jul-26 14:33N 38°45' E 001°26'0 0.0
2015-Jul-26 13:30N 38°45' E 001°26'0 0.0
2015-Jul-26 12:33N 38°45' E 001°25'2 1.8
2015-Jul-26 11:33N 38°47' E 001°25'8 2.1
2015-Jul-26 07:33N 38°55' E 001°26'1 0.1
2015-Jul-26 00:04N 38°54' E 001°26'1 1.9
2015-Jul-25 23:29N 38°53' E 001°25'5 0.7
2015-Jul-25 16:05N 38°51' E 001°19'1 0.2
2015-Jul-25 12:09N 38°52' E 001°20'9 4.4
2015-Jul-25 10:12N 38°58' E 001°12'2 0.3
2015-Jul-25 01:05N 38°58' E 001°15'0 0.0
2015-Jul-24 21:28N 38°58' E 001°15'0 0.0
2015-Jul-24 13:33N 38°58' E 001°15'10 0.6
2015-Jul-23 21:23N 38°49' E 001°21'5 5.6
2015-Jul-23 20:25N 38°45' E 001°26'0 0.0
2015-Jul-23 19:25N 38°45' E 001°26'0 0.0
2015-Jul-23 18:16N 38°45' E 001°26'4 5.0
2015-Jul-23 17:33N 38°42' E 001°23'0 0.0
2015-Jul-23 16:23N 38°42' E 001°23'0 0.0
2015-Jul-23 15:23N 38°42' E 001°23'  
Track history (hours):
 
Tides and Currents Weather Stations Pressure Air Temp Water Temp Dewpoint Dewpoint Depression Visibility Wind Speed Wind Dir Waves Ship Positions

Tatiana 1

Last reported at 2015-Aug-02 13:33 UTC. Time now 2015-Aug-02 14:18 UTC.
Position N 39°15' E 002°07'.

Length 47 m; draft 1.8 m.

Type: Ship. MMSI: 256188000.

Date/timePositionNaut miles runAvg speedWind from/ knotsBaromVisibWave heightAir tempDewpointWater temp
2015-Aug-02 13:33N 39°15' E 002°07'10 9.9
2015-Aug-02 12:33N 39°20' E 002°17'1010.0
2015-Aug-02 11:33N 39°25' E 002°29'9 9.3
2015-Aug-02 10:33N 39°32' E 002°37'2 1.6
2015-Aug-02 09:32N 39°33' E 002°38'0 0.0
2015-Aug-02 08:32N 39°33' E 002°38'0 0.0
2015-Aug-02 07:32N 39°33' E 002°38'0 0.0
2015-Aug-02 06:32N 39°33' E 002°38'0 0.0
2015-Aug-02 05:32N 39°33' E 002°38'0 0.0
2015-Aug-02 04:32N 39°33' E 002°38'0 0.0
2015-Aug-02 03:32N 39°33' E 002°38'0 0.0
2015-Aug-02 02:32N 39°33' E 002°38'0 0.0
2015-Aug-02 01:32N 39°33' E 002°38'0 0.0
2015-Aug-02 00:32N 39°33' E 002°38'0 0.0
2015-Aug-01 23:32N 39°33' E 002°38'0 0.0
2015-Aug-01 22:32N 39°33' E 002°38'0 0.0
2015-Aug-01 21:08N 39°33' E 002°38'0 0.0
2015-Aug-01 20:32N 39°33' E 002°38'0 0.0
2015-Aug-01 19:32N 39°33' E 002°38'0 0.0
2015-Aug-01 18:32N 39°33' E 002°38'0 0.0
2015-Aug-01 17:32N 39°33' E 002°38'1 0.8
2015-Aug-01 16:33N 39°33' E 002°38'10 9.7
2015-Aug-01 15:33N 39°27' E 002°28'5 3.9
2015-Aug-01 14:22N 39°32' E 002°27'0 0.0
2015-Aug-01 13:16N 39°32' E 002°27'0 0.0
2015-Aug-01 12:10N 39°32' E 002°27'0 0.0
2015-Aug-01 11:28N 39°32' E 002°27'0 0.1
2015-Aug-01 10:22N 39°32' E 002°27'0 0.1
2015-Aug-01 09:22N 39°32' E 002°27'0 0.1
2015-Aug-01 08:33N 39°32' E 002°27'4 0.3
2015-Jul-31 20:26N 39°33' E 002°22'0 0.0
2015-Jul-31 17:30N 39°32' E 002°22'91 1.9
2015-Jul-29 17:30N 39°49' E 004°18'21 4.2
2015-Jul-29 12:29N 39°55' E 003°51'5 0.9
2015-Jul-29 06:26N 39°60' E 003°48'1 1.3
2015-Jul-29 05:33N 39°60' E 003°47'9 9.4
2015-Jul-29 04:33N 39°60' E 003°35'59 1.8
2015-Jul-27 20:06N 39°29' E 002°29'0 0.0
2015-Jul-27 17:12N 39°29' E 002°29'3 4.5
2015-Jul-27 16:33N 39°27' E 002°31'4 0.4
2015-Jul-27 07:13N 39°31' E 002°33'16 9.7
2015-Jul-27 05:33N 39°20' E 002°18'20 9.8
2015-Jul-27 03:33N 39°08' E 001°57'1010.1
2015-Jul-27 02:33N 39°02' E 001°47'12 9.7
2015-Jul-27 01:19N 38°55' E 001°35'12 1.1
2015-Jul-26 14:33N 38°45' E 001°26'0 0.0
2015-Jul-26 13:30N 38°45' E 001°26'0 0.0
2015-Jul-26 12:33N 38°45' E 001°25'2 1.8
2015-Jul-26 11:33N 38°47' E 001°25'8 2.1
2015-Jul-26 07:33N 38°55' E 001°26'1 0.1
2015-Jul-26 00:04N 38°54' E 001°26'1 1.9
2015-Jul-25 23:29N 38°53' E 001°25'5 0.7
2015-Jul-25 16:05N 38°51' E 001°19'1 0.2
2015-Jul-25 12:09N 38°52' E 001°20'9 4.4
2015-Jul-25 10:12N 38°58' E 001°12'2 0.3
2015-Jul-25 01:05N 38°58' E 001°15'0 0.0
2015-Jul-24 21:28N 38°58' E 001°15'0 0.0
2015-Jul-24 13:33N 38°58' E 001°15'10 0.6
2015-Jul-23 21:23N 38°49' E 001°21'5 5.6
2015-Jul-23 20:25N 38°45' E 001°26'0 0.0
2015-Jul-23 19:25N 38°45' E 001°26'0 0.0
2015-Jul-23 18:16N 38°45' E 001°26'4 5.0
2015-Jul-23 17:33N 38°42' E 001°23'0 0.0
2015-Jul-23 16:23N 38°42' E 001°23'0 0.0
2015-Jul-23 15:23N 38°42' E 001°23'  

Dump ship's entire track history